Time;durP1;ratioP1;P1;durP2;ratioP2;P2;SDS_P1;SDS_P2;PMS_P1;PMS_P2;Temp;Humidity;BMP_temperature;BMP_pressure;BME280_temperature;BME280_humidity;BME280_pressure;Samples;Min_cycle;Max_cycle;Signal;HPM_P1;HPM_P2
2024/02/25 05:30:23;;;;;;;0.10;0.10;;;7.40;90.30;;;;;;6154577;23;20118;31
2024/02/25 05:32:49;;;;;;;0.10;0.10;;;7.40;90.30;;;;;;6095044;23;20029;-75
2024/02/25 05:35:14;;;;;;;0.10;0.10;;;7.40;90.40;;;;;;6100236;23;20006;-75
2024/02/25 05:37:40;;;;;;;0.10;0.10;;;7.30;90.50;;;;;;6099481;23;19998;-75
2024/02/25 05:40:07;;;;;;;0.10;0.10;;;7.40;90.50;;;;;;6100260;23;20003;-75
2024/02/25 05:42:35;;;;;;;0.10;0.10;;;7.30;90.50;;;;;;6100165;23;20522;-75
2024/02/25 05:45:00;;;;;;;0.10;0.10;;;7.30;90.60;;;;;;6099988;23;20002;-75
2024/02/25 05:47:26;;;;;;;0.13;0.13;;;7.40;90.60;;;;;;6147896;23;20023;-75
2024/02/25 05:49:52;;;;;;;0.10;0.10;;;7.40;90.70;;;;;;6099886;23;20009;-75
2024/02/25 05:52:17;;;;;;;0.10;0.10;;;7.30;90.60;;;;;;6101313;23;20392;-75
2024/02/25 05:54:43;;;;;;;0.17;0.17;;;7.40;90.70;;;;;;6102044;23;20033;-75
2024/02/25 05:57:08;;;;;;;0.10;0.10;;;7.40;90.80;;;;;;6101676;23;20100;-75
2024/02/25 05:59:34;;;;;;;0.10;0.10;;;7.30;90.80;;;;;;6101593;23;20081;-75
2024/02/25 06:01:59;;;;;;;0.10;0.10;;;7.30;90.90;;;;;;6101237;23;20006;-75
2024/02/25 06:04:25;;;;;;;0.10;0.10;;;7.40;91.00;;;;;;6101262;23;19999;-74
2024/02/25 06:06:52;;;;;;;0.20;0.20;;;7.40;91.00;;;;;;6102320;23;20036;-74
2024/02/25 06:09:18;;;;;;;0.17;0.17;;;7.40;91.10;;;;;;6099993;23;20355;-75
2024/02/25 06:11:45;;;;;;;0.10;0.10;;;7.40;91.20;;;;;;6101486;23;20015;-74
2024/02/25 06:14:10;;;;;;;0.10;0.10;;;7.30;91.10;;;;;;6101666;23;20067;-75
2024/02/25 06:16:37;;;;;;;0.10;0.10;;;7.40;91.20;;;;;;6102140;23;20489;-74
2024/02/25 06:19:02;;;;;;;0.10;0.10;;;7.40;91.20;;;;;;6101646;23;20010;-74
2024/02/25 06:21:28;;;;;;;0.10;0.10;;;7.40;91.20;;;;;;6101619;23;20435;-74
2024/02/25 06:23:53;;;;;;;0.10;0.10;;;7.40;91.30;;;;;;6149208;23;20010;-75
2024/02/25 06:26:19;;;;;;;0.10;0.10;;;7.30;91.20;;;;;;6101736;23;20034;-75
2024/02/25 06:28:45;;;;;;;0.10;0.10;;;7.40;91.20;;;;;;6101496;23;20034;-74
2024/02/25 06:31:10;;;;;;;0.20;0.20;;;7.40;91.40;;;;;;6101680;23;20045;-74
2024/02/25 06:33:36;;;;;;;0.10;0.10;;;7.40;91.30;;;;;;6101461;23;20423;-74
2024/02/25 06:36:02;;;;;;;0.10;0.10;;;7.40;91.40;;;;;;6101841;23;20057;-74
2024/02/25 06:38:27;;;;;;;0.10;0.10;;;7.40;91.40;;;;;;6101698;23;20872;-74
2024/02/25 06:40:53;;;;;;;0.10;0.10;;;7.40;91.40;;;;;;6099886;23;20043;-74
2024/02/25 06:43:19;;;;;;;0.15;0.15;;;7.40;91.50;;;;;;6101177;23;20010;-74
2024/02/25 06:45:44;;;;;;;0.10;0.10;;;7.40;91.60;;;;;;6101884;23;20010;-74
2024/02/25 06:48:10;;;;;;;0.13;0.13;;;7.50;91.60;;;;;;6101455;23;20102;-75
2024/02/25 06:50:35;;;;;;;0.10;0.10;;;7.50;91.50;;;;;;6101375;23;20006;-74
2024/02/25 06:53:01;;;;;;;0.20;0.20;;;7.40;91.50;;;;;;6100178;23;20008;-75
2024/02/25 06:55:27;;;;;;;0.10;0.10;;;7.40;91.60;;;;;;6101628;23;20062;-75
2024/02/25 06:57:52;;;;;;;0.10;0.10;;;7.50;91.70;;;;;;6101039;23;20010;-74
2024/02/25 07:00:19;;;;;;;0.10;0.10;;;7.50;91.70;;;;;;6148599;23;20006;-74
2024/02/25 07:02:44;;;;;;;0.10;0.10;;;7.50;91.80;;;;;;6099473;23;20219;-74
2024/02/25 07:05:10;;;;;;;0.10;0.10;;;7.50;91.80;;;;;;6101498;23;20002;-74
2024/02/25 07:07:38;;;;;;;0.15;0.15;;;7.40;91.80;;;;;;6100801;23;20061;-74
2024/02/25 07:10:05;;;;;;;0.10;0.10;;;7.50;91.80;;;;;;6100117;23;20038;-74
2024/02/25 07:12:31;;;;;;;0.10;0.10;;;7.50;91.80;;;;;;6100799;23;20077;-74
2024/02/25 07:14:56;;;;;;;0.10;0.10;;;7.50;91.80;;;;;;6100770;23;19998;-75
2024/02/25 07:17:22;;;;;;;0.10;0.10;;;7.50;91.80;;;;;;6101595;23;20002;-74
2024/02/25 07:19:48;;;;;;;0.20;0.20;;;7.50;91.90;;;;;;6101268;23;20443;-74
2024/02/25 07:22:13;;;;;;;0.10;0.10;;;7.50;92.00;;;;;;6100366;23;20003;-74
2024/02/25 07:24:42;;;;;;;0.10;0.10;;;7.40;92.00;;;;;;6101434;23;20455;-74
2024/02/25 07:27:08;;;;;;;0.13;0.13;;;7.40;92.00;;;;;;6099686;23;20013;-74
2024/02/25 07:29:34;;;;;;;0.10;0.10;;;7.40;92.00;;;;;;6100865;23;20376;-74
2024/02/25 07:31:59;;;;;;;0.10;0.10;;;7.40;92.00;;;;;;6101069;23;20028;-74
2024/02/25 07:34:25;;;;;;;0.10;0.10;;;7.40;92.10;;;;;;6100696;23;20013;-74
2024/02/25 07:36:51;;;;;;;0.10;0.10;;;7.40;92.10;;;;;;6099698;23;20010;-74
2024/02/25 07:39:17;;;;;;;0.13;0.13;;;7.40;92.10;;;;;;6101017;23;20447;-74
2024/02/25 07:41:48;;;;;;;0.10;0.10;;;7.40;92.10;;;;;;6101001;23;20007;-74
2024/02/25 07:44:15;;;;;;;0.10;0.10;;;7.50;92.00;;;;;;6101285;23;20009;-74
2024/02/25 07:46:41;;;;;;;0.10;0.10;;;7.50;92.00;;;;;;6148213;23;20506;-74
2024/02/25 07:49:06;;;;;;;0.10;0.10;;;7.50;92.00;;;;;;6100632;23;20071;-74
2024/02/25 07:51:35;;;;;;;0.10;0.10;;;7.50;91.90;;;;;;6101199;23;20003;-74
2024/02/25 07:54:01;;;;;;;0.10;0.10;;;7.60;92.00;;;;;;6099075;23;20030;-74
2024/02/25 07:56:27;;;;;;;0.10;0.10;;;7.60;91.90;;;;;;6148885;23;20387;-74
2024/02/25 07:58:53;;;;;;;0.10;0.10;;;7.60;91.80;;;;;;6100264;23;20466;-74
2024/02/25 08:01:19;;;;;;;0.10;0.10;;;7.60;92.00;;;;;;6100721;23;20543;-74
2024/02/25 08:03:45;;;;;;;0.10;0.10;;;7.60;91.90;;;;;;6100475;23;20065;-74
2024/02/25 08:06:11;;;;;;;0.10;0.10;;;7.60;91.80;;;;;;6100866;23;19999;-74
2024/02/25 08:08:36;;;;;;;0.10;0.10;;;7.60;91.90;;;;;;6100396;23;20095;-74
2024/02/25 08:11:02;;;;;;;0.10;0.10;;;7.60;91.90;;;;;;6101116;23;20025;-74
2024/02/25 08:13:28;;;;;;;0.10;0.10;;;7.70;91.90;;;;;;6147877;23;20467;-74
2024/02/25 08:15:54;;;;;;;0.10;0.10;;;7.70;92.00;;;;;;6100483;23;20012;-74
2024/02/25 08:18:19;;;;;;;0.20;0.20;;;7.70;92.00;;;;;;6098911;23;20011;-74
2024/02/25 08:20:45;;;;;;;0.10;0.10;;;7.60;92.00;;;;;;6148147;23;20007;-74
2024/02/25 08:23:11;;;;;;;0.10;0.10;;;7.60;92.00;;;;;;6100672;23;20006;-74
2024/02/25 08:25:36;;;;;;;0.10;0.10;;;7.70;92.00;;;;;;6100626;23;20054;-74
2024/02/25 08:28:03;;;;;;;0.10;0.10;;;7.70;92.00;;;;;;6100650;23;20006;-74
2024/02/25 08:30:28;;;;;;;0.10;0.10;;;7.70;91.90;;;;;;6100187;23;20014;-73
2024/02/25 08:32:54;;;;;;;0.20;0.20;;;7.70;92.00;;;;;;6100458;23;20049;-74
2024/02/25 08:35:20;;;;;;;0.10;0.10;;;7.70;92.00;;;;;;6100933;23;20006;-74
2024/02/25 08:37:46;;;;;;;0.10;0.10;;;7.70;92.00;;;;;;6100525;23;20002;-74
2024/02/25 08:40:12;;;;;;;0.10;0.10;;;7.70;92.10;;;;;;6100629;23;20859;-74
2024/02/25 08:42:38;;;;;;;0.10;0.10;;;7.70;92.20;;;;;;6100629;23;20006;-74
2024/02/25 08:45:04;;;;;;;0.10;0.10;;;7.70;92.20;;;;;;6100098;23;20010;-74
2024/02/25 08:47:30;;;;;;;0.10;0.10;;;7.70;92.20;;;;;;6147890;23;20074;-74
2024/02/25 08:49:57;;;;;;;0.10;0.10;;;7.70;92.30;;;;;;6100535;23;19998;-74
2024/02/25 08:52:23;;;;;;;0.20;0.20;;;7.70;92.20;;;;;;6100524;23;20340;-74
2024/02/25 08:54:49;;;;;;;0.10;0.10;;;7.70;92.30;;;;;;6100548;23;20003;-74
2024/02/25 08:57:14;;;;;;;0.10;0.10;;;7.70;92.30;;;;;;6100452;23;20006;-74
2024/02/25 08:59:40;;;;;;;0.10;0.10;;;7.80;92.20;;;;;;6098657;23;20077;-74
2024/02/25 09:02:06;;;;;;;0.10;0.10;;;7.80;92.30;;;;;;6100541;23;20038;-74
2024/02/25 09:04:31;;;;;;;0.10;0.10;;;7.80;92.20;;;;;;6100106;23;20026;-74
2024/02/25 09:06:58;;;;;;;0.20;0.20;;;7.80;92.30;;;;;;6100442;23;20005;-74
2024/02/25 09:09:24;;;;;;;0.10;0.10;;;7.80;92.20;;;;;;6100631;23;20450;-75
2024/02/25 09:11:50;;;;;;;0.10;0.10;;;7.80;92.40;;;;;;6100517;23;20018;-74
2024/02/25 09:14:16;;;;;;;0.10;0.10;;;7.80;92.30;;;;;;6098152;23;20014;-74
2024/02/25 09:16:42;;;;;;;0.10;0.10;;;7.80;92.40;;;;;;6100555;23;20002;-74
2024/02/25 09:19:07;;;;;;;0.10;0.10;;;7.80;92.60;;;;;;6100528;23;20003;-74
2024/02/25 09:21:33;;;;;;;0.10;0.10;;;7.80;92.80;;;;;;6100005;23;20049;-74
2024/02/25 09:24:01;;;;;;;0.10;0.10;;;7.80;92.60;;;;;;6100352;23;19999;-74
2024/02/25 09:26:26;;;;;;;0.10;0.10;;;7.80;92.60;;;;;;6099982;23;20055;-74
2024/02/25 09:28:52;;;;;;;0.10;0.10;;;7.80;92.80;;;;;;6102190;23;20006;-74
2024/02/25 09:31:18;;;;;;;0.10;0.10;;;7.90;92.80;;;;;;6102138;23;20477;-75
2024/02/25 09:33:50;;;;;;;0.15;0.15;;;7.80;92.80;;;;;;6101869;23;20092;-75
2024/02/25 09:36:23;;;;;;;0.10;0.10;;;7.80;92.80;;;;;;6100759;23;20502;-75
2024/02/25 09:38:49;;;;;;;0.13;0.13;;;7.80;92.90;;;;;;6102825;23;20344;-75
2024/02/25 09:41:18;;;;;;;0.10;0.10;;;7.80;93.00;;;;;;6149500;23;20011;-75
2024/02/25 09:43:44;;;;;;;0.10;0.10;;;7.90;93.00;;;;;;6100220;23;20061;-75
2024/02/25 09:46:10;;;;;;;0.10;0.10;;;7.80;92.80;;;;;;6100247;23;20000;-75
2024/02/25 09:48:36;;;;;;;0.10;0.10;;;7.90;92.80;;;;;;6100937;23;20470;-75
2024/02/25 09:51:02;;;;;;;0.10;0.10;;;7.80;92.80;;;;;;6101700;23;20308;-75
2024/02/25 09:53:30;;;;;;;0.20;0.20;;;7.90;92.90;;;;;;6102227;23;20029;-75
2024/02/25 09:55:56;;;;;;;0.10;0.10;;;7.90;92.90;;;;;;6102282;23;20021;-75
2024/02/25 09:58:22;;;;;;;0.10;0.10;;;7.90;92.80;;;;;;6100744;23;20014;-75
2024/02/25 10:00:47;;;;;;;0.10;0.10;;;7.90;92.90;;;;;;6101569;23;20006;-75
2024/02/25 10:03:13;;;;;;;0.13;0.13;;;7.90;92.70;;;;;;6101882;23;20002;-75
2024/02/25 10:05:40;;;;;;;0.20;0.20;;;8.00;92.70;;;;;;6101958;23;20077;-75
2024/02/25 10:08:10;;;;;;;0.10;0.10;;;8.00;92.70;;;;;;6101774;23;20022;-75
2024/02/25 10:10:36;;;;;;;0.10;0.10;;;8.10;92.60;;;;;;6101642;23;20010;-75
2024/02/25 10:13:03;;;;;;;0.10;0.10;;;8.20;92.70;;;;;;6101908;23;20006;-75
2024/02/25 10:15:29;;;;;;;0.10;0.10;;;8.20;92.40;;;;;;6102406;23;20010;-75
2024/02/25 10:17:54;;;;;;;0.10;0.10;;;8.20;92.40;;;;;;6101560;23;20109;-75
2024/02/25 10:20:20;;;;;;;0.10;0.10;;;8.20;92.40;;;;;;6101697;23;20427;-75
2024/02/25 10:22:46;;;;;;;0.20;0.20;;;8.20;92.40;;;;;;6101698;23;19999;-75
2024/02/25 10:25:11;;;;;;;0.10;0.10;;;8.20;92.40;;;;;;6102039;23;20058;-75
2024/02/25 10:27:37;;;;;;;0.10;0.10;;;8.20;92.30;;;;;;6101549;23;20081;-75
2024/02/25 10:30:08;;;;;;;0.10;0.10;;;8.20;92.30;;;;;;6101063;23;20490;-75
2024/02/25 10:32:41;;;;;;;0.10;0.10;;;8.20;92.50;;;;;;6102070;23;20015;-75
2024/02/25 10:35:09;;;;;;;0.10;0.10;;;8.20;92.30;;;;;;6101692;23;20006;-75
2024/02/25 10:37:35;;;;;;;0.10;0.10;;;8.30;92.50;;;;;;6101764;23;20079;-75
2024/02/25 10:40:06;;;;;;;0.10;0.10;;;8.30;92.40;;;;;;6101146;23;20002;-75
2024/02/25 10:42:33;;;;;;;0.10;0.10;;;8.40;92.40;;;;;;6101285;23;19999;-75
2024/02/25 10:45:00;;;;;;;0.10;0.10;;;8.40;92.40;;;;;;6101513;23;20057;-75
2024/02/25 10:47:31;;;;;;;0.10;0.10;;;8.50;92.40;;;;;;6100215;23;20013;-75
2024/02/25 10:49:57;;;;;;;0.10;0.10;;;8.50;92.30;;;;;;6101458;23;20017;-75
2024/02/25 10:52:26;;;;;;;0.20;0.20;;;8.60;92.30;;;;;;6101006;23;20491;-75
2024/02/25 10:54:52;;;;;;;0.10;0.10;;;8.60;92.10;;;;;;6099872;23;20007;-75
2024/02/25 10:57:18;;;;;;;0.13;0.13;;;8.60;92.30;;;;;;6101464;23;20047;-75
2024/02/25 10:59:48;;;;;;;0.10;0.10;;;8.70;92.30;;;;;;6101146;23;20034;-75
2024/02/25 11:02:26;;;;;;;0.10;0.10;;;8.70;92.40;;;;;;6100893;23;20086;-75
2024/02/25 11:04:52;;;;;;;0.10;0.10;;;8.70;92.30;;;;;;6100153;23;20005;-75
2024/02/25 11:07:18;;;;;;;0.10;0.10;;;8.80;92.30;;;;;;6100944;23;19999;-75
2024/02/25 11:09:43;;;;;;;0.10;0.10;;;8.80;92.30;;;;;;6099757;23;20436;-75
2024/02/25 11:12:24;;;;;;;0.10;0.10;;;8.80;92.30;;;;;;6101168;23;20097;-75
2024/02/25 11:15:00;;;;;;;0.10;0.10;;;8.80;92.20;;;;;;6099554;23;20312;-75
2024/02/25 11:17:29;;;;;;;0.10;0.10;;;8.80;92.40;;;;;;6100461;23;20462;-75
2024/02/25 11:19:58;;;;;;;0.10;0.10;;;8.90;92.20;;;;;;6101298;23;20016;-75
2024/02/25 11:22:44;;;;;;;0.10;0.10;;;8.90;92.10;;;;;;6099690;23;20006;-75
2024/02/25 11:25:42;;;;;;;0.10;0.10;;;8.90;92.10;;;;;;6100651;23;19998;-75
2024/02/25 11:28:15;;;;;;;0.10;0.10;;;9.00;92.20;;;;;;6052360;23;20013;-75
2024/02/25 11:30:45;;;;;;;0.20;0.20;;;9.00;92.00;;;;;;6099148;23;20014;-75
2024/02/25 11:36:12;;;;;;;0.10;0.10;;;9.10;91.80;;;;;;6101291;23;20503;-75
2024/02/25 11:38:40;;;;;;;0.10;0.10;;;9.10;92.00;;;;;;6100353;23;20002;-75
2024/02/25 11:41:06;;;;;;;0.10;0.10;;;9.20;92.00;;;;;;6099432;23;20030;-75
2024/02/25 11:43:32;;;;;;;0.10;0.10;;;9.20;92.00;;;;;;6099706;23;20378;-75
2024/02/25 11:45:59;;;;;;;0.10;0.10;;;9.20;91.80;;;;;;6100573;23;20450;-75
2024/02/25 11:48:30;;;;;;;0.20;0.20;;;9.30;91.80;;;;;;6101124;23;20002;-75
2024/02/25 11:50:56;;;;;;;0.10;0.10;;;9.40;91.90;;;;;;6148287;23;20029;-75
2024/02/25 11:53:22;;;;;;;0.10;0.10;;;9.50;91.70;;;;;;6100891;23;20391;-75
2024/02/25 11:55:47;;;;;;;0.10;0.10;;;9.50;91.70;;;;;;6100493;23;20013;-75
2024/02/25 11:58:13;;;;;;;0.10;0.10;;;9.50;91.40;;;;;;6100167;23;20029;-75
2024/02/25 12:00:39;;;;;;;0.10;0.10;;;9.50;91.60;;;;;;6100985;23;20006;-75
2024/02/25 12:03:06;;;;;;;0.10;0.10;;;9.50;91.50;;;;;;6100377;23;20005;-75
2024/02/25 12:05:32;;;;;;;0.10;0.10;;;9.60;91.50;;;;;;6100462;23;20070;-75
2024/02/25 12:07:58;;;;;;;0.10;0.10;;;9.60;91.50;;;;;;6100514;23;19998;-75
2024/02/25 12:10:25;;;;;;;0.10;0.10;;;9.60;91.60;;;;;;6101018;23;20013;-75
2024/02/25 12:12:52;;;;;;;0.20;0.20;;;9.70;91.60;;;;;;6100357;23;20045;-75
2024/02/25 12:15:19;;;;;;;0.10;0.10;;;9.70;91.60;;;;;;6100708;23;20006;-75
2024/02/25 12:17:48;;;;;;;0.20;0.20;;;9.80;91.30;;;;;;6100843;23;20034;-75
2024/02/25 12:20:16;;;;;;;0.10;0.10;;;9.80;91.30;;;;;;6148256;23;20331;-75
2024/02/25 12:22:42;;;;;;;0.10;0.10;;;9.90;91.60;;;;;;6100569;23;20022;-75
2024/02/25 12:25:15;;;;;;;0.10;0.10;;;10.00;91.60;;;;;;6100396;23;20057;-75
2024/02/25 12:27:41;;;;;;;0.10;0.10;;;10.00;91.40;;;;;;6100774;23;20379;-75
2024/02/25 12:30:10;;;;;;;0.10;0.10;;;10.10;91.40;;;;;;6100488;23;20002;-75
2024/02/25 12:32:36;;;;;;;0.10;0.10;;;10.10;91.40;;;;;;6099195;23;20009;-75
2024/02/25 12:35:03;;;;;;;0.10;0.10;;;10.10;91.40;;;;;;6100698;23;20362;-75
2024/02/25 12:37:30;;;;;;;0.10;0.10;;;10.10;91.30;;;;;;6100425;23;20005;-75
2024/02/25 12:39:57;;;;;;;0.10;0.10;;;10.10;91.40;;;;;;6101048;23;20031;-75
2024/02/25 12:42:23;;;;;;;0.10;0.10;;;10.10;91.50;;;;;;6100367;23;20313;-75
2024/02/25 12:44:49;;;;;;;0.10;0.10;;;10.20;91.50;;;;;;6147330;23;20033;-75
2024/02/25 12:47:14;;;;;;;0.10;0.10;;;10.20;91.40;;;;;;6099109;23;20569;-75
2024/02/25 12:49:40;;;;;;;0.10;0.10;;;10.30;91.40;;;;;;6100473;23;20010;-75
2024/02/25 12:52:06;;;;;;;0.10;0.10;;;10.40;91.40;;;;;;6100065;23;20036;-75
2024/02/25 12:54:32;;;;;;;0.10;0.10;;;10.40;91.10;;;;;;6100634;23;20002;-75
2024/02/25 12:57:00;;;;;;;0.10;0.10;;;10.40;91.20;;;;;;6100176;23;20007;-75
2024/02/25 12:59:26;;;;;;;0.10;0.10;;;10.50;91.10;;;;;;6100317;23;20042;-75
2024/02/25 13:01:53;;;;;;;0.10;0.10;;;10.40;91.00;;;;;;6101476;23;20034;-75
2024/02/25 13:04:22;;;;;;;0.10;0.10;;;10.40;91.20;;;;;;6100854;23;20010;-76
2024/02/25 13:06:48;;;;;;;0.10;0.10;;;10.30;91.10;;;;;;6102631;23;20078;-75
2024/02/25 13:09:14;;;;;;;0.10;0.10;;;10.30;91.30;;;;;;6100937;23;20006;-75
2024/02/25 13:11:40;;;;;;;0.10;0.10;;;10.40;91.40;;;;;;6102505;23;20141;-75
2024/02/25 13:14:05;;;;;;;0.10;0.10;;;10.30;91.20;;;;;;6102490;23;20486;-75
2024/02/25 13:16:33;;;;;;;0.10;0.10;;;10.40;91.30;;;;;;6100832;23;20038;-75
2024/02/25 13:18:59;;;;;;;0.10;0.10;;;10.50;91.40;;;;;;6100822;23;20010;-76
2024/02/25 13:21:25;;;;;;;0.13;0.13;;;10.60;91.20;;;;;;6102088;23;20068;-75
2024/02/25 13:23:51;;;;;;;0.10;0.10;;;10.60;91.50;;;;;;6102650;23;20006;-75
2024/02/25 13:26:16;;;;;;;0.10;0.10;;;10.70;91.40;;;;;;6100798;23;20002;-75
2024/02/25 13:28:44;;;;;;;0.10;0.10;;;10.70;91.30;;;;;;6102057;23;20077;-75
2024/02/25 13:31:10;;;;;;;0.10;0.10;;;10.70;91.20;;;;;;6101635;23;20026;-75
2024/02/25 13:33:36;;;;;;;0.10;0.10;;;10.70;91.40;;;;;;6102105;23;20101;-75
2024/02/25 13:36:02;;;;;;;0.10;0.10;;;10.70;91.50;;;;;;6102747;23;20507;-75
2024/02/25 13:38:27;;;;;;;0.10;0.10;;;10.70;91.50;;;;;;6102127;23;20002;-75
2024/02/25 13:40:53;;;;;;;0.10;0.10;;;10.80;91.40;;;;;;6102028;23;20017;-75
2024/02/25 13:43:19;;;;;;;0.10;0.10;;;10.80;91.40;;;;;;6101849;23;20079;-75
2024/02/25 13:45:47;;;;;;;0.10;0.10;;;10.80;91.40;;;;;;6102372;23;20463;-75
2024/02/25 13:48:14;;;;;;;0.10;0.10;;;10.80;91.40;;;;;;6102008;23;20395;-76
2024/02/25 13:50:40;;;;;;;0.10;0.10;;;10.80;91.40;;;;;;6102331;23;20062;-75
2024/02/25 13:53:06;;;;;;;0.10;0.10;;;10.80;91.60;;;;;;6102179;23;20490;-75
2024/02/25 13:55:31;;;;;;;0.10;0.10;;;10.70;91.50;;;;;;6100967;23;20051;-75
2024/02/25 13:57:58;;;;;;;0.10;0.10;;;10.70;91.70;;;;;;6101682;23;20003;-75
2024/02/25 14:00:23;;;;;;;0.10;0.10;;;10.70;91.90;;;;;;6099972;23;20350;-75
2024/02/25 14:02:49;;;;;;;0.10;0.10;;;10.70;91.90;;;;;;6102187;23;20030;-75
2024/02/25 14:05:15;;;;;;;0.10;0.10;;;10.80;91.80;;;;;;6102159;23;20489;-75
2024/02/25 14:07:40;;;;;;;0.10;0.10;;;10.70;91.80;;;;;;6101560;23;20006;-75
2024/02/25 14:10:13;;;;;;;0.10;0.10;;;10.80;91.90;;;;;;6101991;23;20555;-75
2024/02/25 14:12:39;;;;;;;0.10;0.10;;;10.80;91.80;;;;;;6099550;23;20013;-75
2024/02/25 14:15:06;;;;;;;0.10;0.10;;;10.80;91.70;;;;;;6102291;23;20398;-75
2024/02/25 14:17:36;;;;;;;0.10;0.10;;;10.80;91.80;;;;;;6101905;23;20002;-76
2024/02/25 14:20:04;;;;;;;0.10;0.10;;;11.00;92.00;;;;;;6101637;23;19998;-75
2024/02/25 14:22:32;;;;;;;0.10;0.10;;;11.00;92.00;;;;;;6102048;23;20007;-75
2024/02/25 14:24:58;;;;;;;0.10;0.10;;;11.10;91.90;;;;;;6102204;23;20006;-75
2024/02/25 14:27:24;;;;;;;0.10;0.10;;;11.10;92.00;;;;;;6101538;23;20005;-76
2024/02/25 14:29:49;;;;;;;0.10;0.10;;;11.00;92.00;;;;;;6101724;23;20050;-75
2024/02/25 14:32:15;;;;;;;0.10;0.10;;;11.00;92.00;;;;;;6101712;23;20030;-75
2024/02/25 14:34:41;;;;;;;0.10;0.10;;;11.00;92.00;;;;;;6101199;23;20069;-76
2024/02/25 14:37:08;;;;;;;0.10;0.10;;;11.00;92.20;;;;;;6149260;23;20010;-75
2024/02/25 14:39:35;;;;;;;0.10;0.10;;;11.00;92.30;;;;;;6101744;23;20034;-76
2024/02/25 14:42:01;;;;;;;0.10;0.10;;;10.90;92.20;;;;;;6101736;23;20443;-75
2024/02/25 14:44:27;;;;;;;0.10;0.10;;;11.00;92.40;;;;;;6149047;23;20029;-75
2024/02/25 14:46:54;;;;;;;0.10;0.10;;;11.00;92.40;;;;;;6101123;23;20002;-75
2024/02/25 14:49:20;;;;;;;0.10;0.10;;;11.00;92.40;;;;;;6101741;23;20470;-76
2024/02/25 14:51:46;;;;;;;0.10;0.10;;;11.00;92.20;;;;;;6148921;23;20045;-76
2024/02/25 14:54:12;;;;;;;0.10;0.10;;;11.10;92.20;;;;;;6101234;23;20003;-75
2024/02/25 14:56:38;;;;;;;0.10;0.10;;;11.10;92.20;;;;;;6101380;23;20002;-75
2024/02/25 14:59:07;;;;;;;0.10;0.10;;;11.20;92.30;;;;;;6101234;23;20090;-75
2024/02/25 15:01:33;;;;;;;0.10;0.10;;;11.30;92.10;;;;;;6101352;23;20014;-76
2024/02/25 15:03:59;;;;;;;0.10;0.10;;;11.20;92.10;;;;;;6101208;23;20006;-76
2024/02/25 15:06:25;;;;;;;0.10;0.10;;;11.20;92.10;;;;;;6099973;23;20010;-75
2024/02/25 15:08:51;;;;;;;0.10;0.10;;;11.20;92.20;;;;;;6099393;23;20006;-76
2024/02/25 15:11:18;;;;;;;0.10;0.10;;;11.20;92.10;;;;;;6101231;23;20339;-76
2024/02/25 15:13:43;;;;;;;0.10;0.10;;;11.30;92.20;;;;;;6148376;23;20013;-76
2024/02/25 15:16:09;;;;;;;0.10;0.10;;;11.20;92.00;;;;;;6101349;23;20006;-75
2024/02/25 15:18:35;;;;;;;0.10;0.10;;;11.20;92.20;;;;;;6099796;23;20013;-76
2024/02/25 15:21:01;;;;;;;0.10;0.10;;;11.30;92.10;;;;;;6148369;23;20038;-75
2024/02/25 15:23:26;;;;;;;0.10;0.10;;;11.20;92.10;;;;;;6100410;23;20003;-76
2024/02/25 15:25:52;;;;;;;0.10;0.10;;;11.20;92.20;;;;;;6101129;23;20078;-76
2024/02/25 15:28:17;;;;;;;0.10;0.10;;;11.20;92.30;;;;;;6101270;23;20053;-75
2024/02/25 15:30:45;;;;;;;0.10;0.10;;;11.20;92.40;;;;;;6099580;23;20021;-75
2024/02/25 15:33:11;;;;;;;0.10;0.10;;;11.10;92.40;;;;;;6148551;23;20355;-75
2024/02/25 15:35:37;;;;;;;0.10;0.10;;;11.10;92.50;;;;;;6099184;23;20010;-75
2024/02/25 15:38:04;;;;;;;0.10;0.10;;;11.10;92.40;;;;;;6101388;23;20009;-76
2024/02/25 15:40:31;;;;;;;0.10;0.10;;;11.10;92.60;;;;;;6101181;23;20380;-75
2024/02/25 15:43:00;;;;;;;0.10;0.10;;;11.10;92.80;;;;;;6100287;23;20029;-75
2024/02/25 15:45:27;;;;;;;0.10;0.10;;;11.10;92.90;;;;;;6101132;23;20057;-75
2024/02/25 15:47:52;;;;;;;0.10;0.10;;;11.10;92.80;;;;;;6101434;23;20432;-76
2024/02/25 15:50:19;;;;;;;0.10;0.10;;;11.20;92.70;;;;;;6098806;23;20204;-76
2024/02/25 15:52:45;;;;;;;0.10;0.10;;;11.20;92.80;;;;;;6101096;23;20026;-75
2024/02/25 15:55:12;;;;;;;0.10;0.10;;;11.20;92.70;;;;;;6098921;23;20002;-75
2024/02/25 15:57:38;;;;;;;0.20;0.20;;;11.40;92.50;;;;;;6099146;23;20009;-75
2024/02/25 16:00:05;;;;;;;0.10;0.10;;;11.70;92.40;;;;;;6099013;23;20490;-75
2024/02/25 16:02:31;;;;;;;0.15;0.15;;;12.10;92.00;;;;;;6100606;23;20030;-76
2024/02/25 16:04:57;;;;;;;0.10;0.10;;;12.30;91.50;;;;;;6101121;23;20025;-75
2024/02/25 16:07:23;;;;;;;0.10;0.10;;;12.40;91.10;;;;;;6099243;23;20006;-75
2024/02/25 16:09:48;;;;;;;0.10;0.10;;;12.40;90.90;;;;;;6100409;23;20435;-75
2024/02/25 16:12:15;;;;;;;0.10;0.10;;;12.30;91.10;;;;;;6100754;23;20003;-76
2024/02/25 16:14:41;;;;;;;0.10;0.10;;;12.30;91.10;;;;;;6101071;23;20006;-76
2024/02/25 16:17:06;;;;;;;0.10;0.10;;;12.30;91.10;;;;;;6100504;23;20002;-75
2024/02/25 16:19:33;;;;;;;0.10;0.10;;;12.30;91.10;;;;;;6100544;23;20026;-75
2024/02/25 16:21:59;;;;;;;0.10;0.10;;;12.20;91.10;;;;;;6100954;23;20478;-76
2024/02/25 16:24:25;;;;;;;0.10;0.10;;;12.10;91.20;;;;;;6100350;23;20002;-75
2024/02/25 16:26:50;;;;;;;0.10;0.10;;;12.00;91.10;;;;;;6100921;23;20002;-76
2024/02/25 16:29:16;;;;;;;0.10;0.10;;;11.90;91.10;;;;;;6100566;23;20037;-75
2024/02/25 16:31:41;;;;;;;0.10;0.10;;;11.90;91.30;;;;;;6100455;23;20021;-75
2024/02/25 16:34:09;;;;;;;0.10;0.10;;;11.80;91.20;;;;;;6147840;23;20559;-76
2024/02/25 16:36:41;;;;;;;0.10;0.10;;;11.80;91.30;;;;;;6098963;23;20063;-75
2024/02/25 16:39:09;;;;;;;0.10;0.10;;;11.70;91.40;;;;;;6098974;23;20007;-75
2024/02/25 16:41:39;;;;;;;0.10;0.10;;;11.60;91.50;;;;;;6100930;23;20061;-75
2024/02/25 16:44:05;;;;;;;0.10;0.10;;;11.60;91.70;;;;;;6147901;23;20003;-75
2024/02/25 16:46:33;;;;;;;0.10;0.10;;;11.50;92.10;;;;;;6100632;23;20005;-75
2024/02/25 16:48:59;;;;;;;0.10;0.10;;;11.50;92.00;;;;;;6100799;23;20003;-76
2024/02/25 16:51:25;;;;;;;0.10;0.10;;;11.50;92.00;;;;;;6100070;23;20101;-75
2024/02/25 16:53:50;;;;;;;0.10;0.10;;;11.30;91.80;;;;;;6100762;23;20037;-75
2024/02/25 16:56:16;;;;;;;0.10;0.10;;;11.30;91.50;;;;;;6100592;23;20509;-76
2024/02/25 16:58:45;;;;;;;0.10;0.10;;;11.30;91.70;;;;;;6098363;23;20006;-75
2024/02/25 17:01:12;;;;;;;0.10;0.10;;;11.30;91.80;;;;;;6099056;23;20011;-76
2024/02/25 17:03:40;;;;;;;0.20;0.20;;;11.30;91.80;;;;;;6099420;23;20069;-75
2024/02/25 17:06:06;;;;;;;0.10;0.10;;;11.30;91.60;;;;;;6100785;23;20041;-75
2024/02/25 17:08:31;;;;;;;0.10;0.10;;;11.50;91.50;;;;;;6100525;23;20498;-75
2024/02/25 17:10:57;;;;;;;0.15;0.15;;;11.50;91.60;;;;;;6098965;23;20011;-75
2024/02/25 17:13:23;;;;;;;0.10;0.10;;;11.60;91.60;;;;;;6147785;23;20006;-76
2024/02/25 17:15:48;;;;;;;0.10;0.10;;;11.60;91.40;;;;;;6148112;23;20033;-76
2024/02/25 17:18:16;;;;;;;0.10;0.10;;;11.60;91.40;;;;;;6098619;23;20061;-76
2024/02/25 17:20:42;;;;;;;0.10;0.10;;;11.60;91.00;;;;;;6096329;23;20006;-75
2024/02/25 17:23:07;;;;;;;0.13;0.13;;;11.50;91.20;;;;;;6100981;23;20025;-75
2024/02/25 17:25:33;;;;;;;0.10;0.10;;;11.50;91.10;;;;;;6099948;23;20514;-75
2024/02/25 17:28:01;;;;;;;0.20;0.20;;;11.40;91.10;;;;;;6099162;23;20010;-75
2024/02/25 17:30:29;;;;;;;0.10;0.10;;;11.30;91.00;;;;;;6100165;23;20125;-76
2024/02/25 17:32:55;;;;;;;0.20;0.20;;;11.30;91.40;;;;;;6100282;23;20037;-75
2024/02/25 17:35:20;;;;;;;0.10;0.10;;;11.20;91.00;;;;;;6098937;23;20340;-75
2024/02/25 17:37:47;;;;;;;0.10;0.10;;;11.10;91.20;;;;;;6100367;23;20077;-75
2024/02/25 17:40:12;;;;;;;0.17;0.17;;;11.10;90.90;;;;;;6100161;23;20431;-75
2024/02/25 17:42:39;;;;;;;0.10;0.10;;;11.00;91.10;;;;;;6100522;23;20002;-75
2024/02/25 17:45:05;;;;;;;0.10;0.10;;;11.00;91.10;;;;;;6100278;23;20077;-75
2024/02/25 17:47:31;;;;;;;0.10;0.10;;;11.00;91.20;;;;;;6148067;23;20010;-76
2024/02/25 17:49:56;;;;;;;0.10;0.10;;;10.90;90.90;;;;;;6102274;23;20032;-75
2024/02/25 17:52:24;;;;;;;0.10;0.10;;;10.80;91.10;;;;;;6101740;23;20089;-75
2024/02/25 17:54:50;;;;;;;0.10;0.10;;;10.80;91.00;;;;;;6102217;23;20010;-75
2024/02/25 17:57:17;;;;;;;0.10;0.10;;;10.80;90.80;;;;;;6100753;23;20006;-75
2024/02/25 17:59:42;;;;;;;0.10;0.10;;;10.70;91.20;;;;;;6101871;23;20013;-75
2024/02/25 18:02:09;;;;;;;0.10;0.10;;;10.70;91.00;;;;;;6100721;23;20038;-75
2024/02/25 18:04:34;;;;;;;0.10;0.10;;;10.60;90.60;;;;;;6101417;23;20002;-75
2024/02/25 18:07:00;;;;;;;0.10;0.10;;;10.60;90.70;;;;;;6102045;23;20057;-75
2024/02/25 18:09:26;;;;;;;0.20;0.20;;;10.60;91.00;;;;;;6102378;23;20003;-75
2024/02/25 18:11:53;;;;;;;0.10;0.10;;;10.50;90.80;;;;;;6101652;23;20009;-75
2024/02/25 18:14:20;;;;;;;0.10;0.10;;;10.50;91.00;;;;;;6102200;23;20030;-75
2024/02/25 18:16:48;;;;;;;0.10;0.10;;;10.50;90.90;;;;;;6102193;23;20017;-75
2024/02/25 18:19:15;;;;;;;0.10;0.10;;;10.40;90.90;;;;;;6101613;23;20331;-75
2024/02/25 18:21:47;;;;;;;0.17;0.17;;;10.40;90.90;;;;;;6101841;23;20002;-75